sensor_id;sensor_type;location;lat;lon;timestamp;temperature;humidity
18753;DHT22;9505;50.882;5.350;2023-03-05T00:00:46;6.00;99.90
18753;DHT22;9505;50.882;5.350;2023-03-05T00:03:11;6.00;99.90
18753;DHT22;9505;50.882;5.350;2023-03-05T00:05:37;6.00;99.90
18753;DHT22;9505;50.882;5.350;2023-03-05T00:08:03;6.00;99.90
18753;DHT22;9505;50.882;5.350;2023-03-05T00:10:29;6.00;99.90
18753;DHT22;9505;50.882;5.350;2023-03-05T00:12:54;5.90;99.90
18753;DHT22;9505;50.882;5.350;2023-03-05T00:15:20;5.90;99.90
18753;DHT22;9505;50.882;5.350;2023-03-05T00:17:45;5.80;99.90
18753;DHT22;9505;50.882;5.350;2023-03-05T00:20:11;5.70;99.90
18753;DHT22;9505;50.882;5.350;2023-03-05T00:22:37;5.70;99.90
18753;DHT22;9505;50.882;5.350;2023-03-05T00:25:03;5.70;99.90
18753;DHT22;9505;50.882;5.350;2023-03-05T00:27:29;5.70;99.90
18753;DHT22;9505;50.882;5.350;2023-03-05T00:29:55;5.70;99.90
18753;DHT22;9505;50.882;5.350;2023-03-05T00:32:20;5.70;99.90
18753;DHT22;9505;50.882;5.350;2023-03-05T00:34:46;5.80;99.90
18753;DHT22;9505;50.882;5.350;2023-03-05T00:37:14;5.80;99.90
18753;DHT22;9505;50.882;5.350;2023-03-05T00:39:40;5.80;99.90
18753;DHT22;9505;50.882;5.350;2023-03-05T00:42:06;5.90;99.90
18753;DHT22;9505;50.882;5.350;2023-03-05T00:44:31;5.80;99.90
18753;DHT22;9505;50.882;5.350;2023-03-05T00:46:57;5.70;99.90
18753;DHT22;9505;50.882;5.350;2023-03-05T00:49:23;5.80;99.90
18753;DHT22;9505;50.882;5.350;2023-03-05T00:51:48;5.80;99.90
18753;DHT22;9505;50.882;5.350;2023-03-05T00:54:14;5.80;99.90
18753;DHT22;9505;50.882;5.350;2023-03-05T00:56:40;5.90;99.90
18753;DHT22;9505;50.882;5.350;2023-03-05T00:59:05;5.80;99.90
18753;DHT22;9505;50.882;5.350;2023-03-05T01:01:31;5.80;99.90
18753;DHT22;9505;50.882;5.350;2023-03-05T01:03:56;5.80;99.90
18753;DHT22;9505;50.882;5.350;2023-03-05T01:06:24;5.80;99.90
18753;DHT22;9505;50.882;5.350;2023-03-05T01:08:49;5.70;99.90
18753;DHT22;9505;50.882;5.350;2023-03-05T01:11:15;5.60;99.90
18753;DHT22;9505;50.882;5.350;2023-03-05T01:13:41;5.50;99.90
18753;DHT22;9505;50.882;5.350;2023-03-05T01:16:07;5.50;99.90
18753;DHT22;9505;50.882;5.350;2023-03-05T01:18:32;5.50;99.90
18753;DHT22;9505;50.882;5.350;2023-03-05T01:20:59;5.50;99.90
18753;DHT22;9505;50.882;5.350;2023-03-05T01:23:24;5.50;99.90
18753;DHT22;9505;50.882;5.350;2023-03-05T01:25:54;5.40;99.90
18753;DHT22;9505;50.882;5.350;2023-03-05T01:28:20;5.50;99.90
18753;DHT22;9505;50.882;5.350;2023-03-05T01:30:46;5.50;99.90
18753;DHT22;9505;50.882;5.350;2023-03-05T01:33:12;5.40;99.90
18753;DHT22;9505;50.882;5.350;2023-03-05T01:35:37;5.40;99.90
18753;DHT22;9505;50.882;5.350;2023-03-05T01:38:03;5.50;99.90
18753;DHT22;9505;50.882;5.350;2023-03-05T01:40:30;5.40;99.90
18753;DHT22;9505;50.882;5.350;2023-03-05T01:45:35;5.40;99.90
18753;DHT22;9505;50.882;5.350;2023-03-05T01:48:01;5.40;99.90
18753;DHT22;9505;50.882;5.350;2023-03-05T01:50:27;5.30;99.90
18753;DHT22;9505;50.882;5.350;2023-03-05T01:52:58;5.30;99.90
18753;DHT22;9505;50.882;5.350;2023-03-05T01:55:27;5.30;99.90
18753;DHT22;9505;50.882;5.350;2023-03-05T01:57:58;5.30;99.90
18753;DHT22;9505;50.882;5.350;2023-03-05T02:00:31;5.40;99.90
18753;DHT22;9505;50.882;5.350;2023-03-05T02:03:01;5.40;99.90
18753;DHT22;9505;50.882;5.350;2023-03-05T02:05:33;5.40;99.90
18753;DHT22;9505;50.882;5.350;2023-03-05T02:08:02;5.40;99.90
18753;DHT22;9505;50.882;5.350;2023-03-05T02:10:35;5.50;99.90
18753;DHT22;9505;50.882;5.350;2023-03-05T02:13:05;5.50;99.90
18753;DHT22;9505;50.882;5.350;2023-03-05T02:15:31;5.40;99.90
18753;DHT22;9505;50.882;5.350;2023-03-05T02:17:58;5.40;99.90
18753;DHT22;9505;50.882;5.350;2023-03-05T02:20:28;5.30;99.90
18753;DHT22;9505;50.882;5.350;2023-03-05T02:22:54;5.30;99.90
18753;DHT22;9505;50.882;5.350;2023-03-05T02:25:24;5.20;99.90
18753;DHT22;9505;50.882;5.350;2023-03-05T02:28:10;5.20;99.90
18753;DHT22;9505;50.882;5.350;2023-03-05T02:30:36;5.10;99.90
18753;DHT22;9505;50.882;5.350;2023-03-05T02:33:03;5.10;99.90
18753;DHT22;9505;50.882;5.350;2023-03-05T02:35:29;4.90;99.90
18753;DHT22;9505;50.882;5.350;2023-03-05T02:37:54;4.80;99.90
18753;DHT22;9505;50.882;5.350;2023-03-05T02:40:20;4.90;99.90
18753;DHT22;9505;50.882;5.350;2023-03-05T02:42:46;5.00;99.90
18753;DHT22;9505;50.882;5.350;2023-03-05T02:45:12;5.00;99.90
18753;DHT22;9505;50.882;5.350;2023-03-05T02:47:38;5.00;99.90
18753;DHT22;9505;50.882;5.350;2023-03-05T02:50:05;5.00;99.90
18753;DHT22;9505;50.882;5.350;2023-03-05T02:52:31;5.00;99.90
18753;DHT22;9505;50.882;5.350;2023-03-05T02:54:57;5.00;99.90
18753;DHT22;9505;50.882;5.350;2023-03-05T02:57:23;4.90;99.90
18753;DHT22;9505;50.882;5.350;2023-03-05T02:59:49;4.90;99.90
18753;DHT22;9505;50.882;5.350;2023-03-05T03:02:14;4.90;99.90
18753;DHT22;9505;50.882;5.350;2023-03-05T03:04:41;5.00;99.90
18753;DHT22;9505;50.882;5.350;2023-03-05T03:07:07;4.90;99.90
18753;DHT22;9505;50.882;5.350;2023-03-05T03:09:33;5.00;99.90
18753;DHT22;9505;50.882;5.350;2023-03-05T03:12:00;4.90;99.90
18753;DHT22;9505;50.882;5.350;2023-03-05T03:14:26;4.90;99.90
18753;DHT22;9505;50.882;5.350;2023-03-05T03:16:54;4.90;99.90
18753;DHT22;9505;50.882;5.350;2023-03-05T03:19:20;4.90;99.90
18753;DHT22;9505;50.882;5.350;2023-03-05T03:21:45;4.90;99.90
18753;DHT22;9505;50.882;5.350;2023-03-05T03:24:11;4.90;99.90
18753;DHT22;9505;50.882;5.350;2023-03-05T03:26:37;4.80;99.90
18753;DHT22;9505;50.882;5.350;2023-03-05T03:29:02;4.80;99.90
18753;DHT22;9505;50.882;5.350;2023-03-05T03:31:28;4.80;99.90
18753;DHT22;9505;50.882;5.350;2023-03-05T03:33:53;4.80;99.90
18753;DHT22;9505;50.882;5.350;2023-03-05T03:36:19;4.70;99.90
18753;DHT22;9505;50.882;5.350;2023-03-05T03:38:45;4.70;99.90
18753;DHT22;9505;50.882;5.350;2023-03-05T03:41:10;4.70;99.90
18753;DHT22;9505;50.882;5.350;2023-03-05T03:43:36;4.70;99.90
18753;DHT22;9505;50.882;5.350;2023-03-05T03:46:05;4.70;99.90
18753;DHT22;9505;50.882;5.350;2023-03-05T03:48:32;4.70;99.90
18753;DHT22;9505;50.882;5.350;2023-03-05T03:50:57;4.60;99.90
18753;DHT22;9505;50.882;5.350;2023-03-05T03:53:23;4.60;99.90
18753;DHT22;9505;50.882;5.350;2023-03-05T03:55:49;4.60;99.90
18753;DHT22;9505;50.882;5.350;2023-03-05T03:58:14;4.60;99.90
18753;DHT22;9505;50.882;5.350;2023-03-05T04:00:40;4.60;99.90
18753;DHT22;9505;50.882;5.350;2023-03-05T04:03:06;4.60;99.90
18753;DHT22;9505;50.882;5.350;2023-03-05T04:05:32;4.60;99.90
18753;DHT22;9505;50.882;5.350;2023-03-05T04:07:57;4.70;99.90
18753;DHT22;9505;50.882;5.350;2023-03-05T04:10:24;4.70;99.90
18753;DHT22;9505;50.882;5.350;2023-03-05T04:12:50;4.60;99.90
18753;DHT22;9505;50.882;5.350;2023-03-05T04:15:15;4.70;99.90
18753;DHT22;9505;50.882;5.350;2023-03-05T04:17:41;4.80;99.90
18753;DHT22;9505;50.882;5.350;2023-03-05T04:20:07;4.80;99.90
18753;DHT22;9505;50.882;5.350;2023-03-05T04:22:35;4.80;99.90
18753;DHT22;9505;50.882;5.350;2023-03-05T04:25:01;4.80;99.90
18753;DHT22;9505;50.882;5.350;2023-03-05T04:27:31;4.80;99.90
18753;DHT22;9505;50.882;5.350;2023-03-05T04:29:57;4.70;99.90
18753;DHT22;9505;50.882;5.350;2023-03-05T04:32:22;4.70;99.90
18753;DHT22;9505;50.882;5.350;2023-03-05T04:34:50;4.70;99.90
18753;DHT22;9505;50.882;5.350;2023-03-05T04:37:16;4.70;99.90
18753;DHT22;9505;50.882;5.350;2023-03-05T04:39:41;4.60;99.90
18753;DHT22;9505;50.882;5.350;2023-03-05T04:42:07;4.60;99.90
18753;DHT22;9505;50.882;5.350;2023-03-05T04:44:35;4.60;99.90
18753;DHT22;9505;50.882;5.350;2023-03-05T04:47:00;4.50;99.90
18753;DHT22;9505;50.882;5.350;2023-03-05T04:49:26;4.50;99.90
18753;DHT22;9505;50.882;5.350;2023-03-05T04:51:52;4.60;99.90
18753;DHT22;9505;50.882;5.350;2023-03-05T04:54:17;4.60;99.90
18753;DHT22;9505;50.882;5.350;2023-03-05T04:56:43;4.60;99.90
18753;DHT22;9505;50.882;5.350;2023-03-05T04:59:08;4.60;99.90
18753;DHT22;9505;50.882;5.350;2023-03-05T05:01:34;4.60;99.90
18753;DHT22;9505;50.882;5.350;2023-03-05T05:04:00;4.60;99.90
18753;DHT22;9505;50.882;5.350;2023-03-05T05:06:25;4.60;99.90
18753;DHT22;9505;50.882;5.350;2023-03-05T05:08:51;4.60;99.90
18753;DHT22;9505;50.882;5.350;2023-03-05T05:11:16;4.60;99.90
18753;DHT22;9505;50.882;5.350;2023-03-05T05:13:42;4.50;99.90
18753;DHT22;9505;50.882;5.350;2023-03-05T05:16:08;4.60;99.90
18753;DHT22;9505;50.882;5.350;2023-03-05T05:18:34;4.60;99.90
18753;DHT22;9505;50.882;5.350;2023-03-05T05:21:00;4.60;99.90
18753;DHT22;9505;50.882;5.350;2023-03-05T05:23:26;4.60;99.90
18753;DHT22;9505;50.882;5.350;2023-03-05T05:25:59;4.60;99.90
18753;DHT22;9505;50.882;5.350;2023-03-05T05:28:26;4.60;99.90
18753;DHT22;9505;50.882;5.350;2023-03-05T05:30:52;4.50;99.90
18753;DHT22;9505;50.882;5.350;2023-03-05T05:33:19;4.50;99.90
18753;DHT22;9505;50.882;5.350;2023-03-05T05:35:44;4.50;99.90
18753;DHT22;9505;50.882;5.350;2023-03-05T05:38:10;4.50;99.90
18753;DHT22;9505;50.882;5.350;2023-03-05T05:40:35;4.50;99.90
18753;DHT22;9505;50.882;5.350;2023-03-05T05:43:01;4.50;99.90
18753;DHT22;9505;50.882;5.350;2023-03-05T05:45:27;4.40;99.90
18753;DHT22;9505;50.882;5.350;2023-03-05T05:47:52;4.40;99.90
18753;DHT22;9505;50.882;5.350;2023-03-05T05:50:19;4.40;99.90
18753;DHT22;9505;50.882;5.350;2023-03-05T05:52:45;4.30;99.90
18753;DHT22;9505;50.882;5.350;2023-03-05T05:55:11;4.40;99.90
18753;DHT22;9505;50.882;5.350;2023-03-05T05:57:37;4.40;99.90
18753;DHT22;9505;50.882;5.350;2023-03-05T06:00:06;4.40;99.90
18753;DHT22;9505;50.882;5.350;2023-03-05T06:02:32;4.40;99.90
18753;DHT22;9505;50.882;5.350;2023-03-05T06:04:58;4.40;99.90
18753;DHT22;9505;50.882;5.350;2023-03-05T06:07:23;4.40;99.90
18753;DHT22;9505;50.882;5.350;2023-03-05T06:09:49;4.40;99.90
18753;DHT22;9505;50.882;5.350;2023-03-05T06:12:15;4.40;99.90
18753;DHT22;9505;50.882;5.350;2023-03-05T06:14:40;4.30;99.90
18753;DHT22;9505;50.882;5.350;2023-03-05T06:17:06;4.30;99.90
18753;DHT22;9505;50.882;5.350;2023-03-05T06:19:32;4.30;99.90
18753;DHT22;9505;50.882;5.350;2023-03-05T06:21:57;4.40;99.90
18753;DHT22;9505;50.882;5.350;2023-03-05T06:24:23;4.40;99.90
18753;DHT22;9505;50.882;5.350;2023-03-05T06:26:48;4.50;99.90
18753;DHT22;9505;50.882;5.350;2023-03-05T06:29:14;4.50;99.90
18753;DHT22;9505;50.882;5.350;2023-03-05T06:31:40;4.50;99.90
18753;DHT22;9505;50.882;5.350;2023-03-05T06:34:06;4.40;99.90
18753;DHT22;9505;50.882;5.350;2023-03-05T06:36:31;4.40;99.90
18753;DHT22;9505;50.882;5.350;2023-03-05T06:38:57;4.50;99.90
18753;DHT22;9505;50.882;5.350;2023-03-05T06:41:26;4.50;99.90
18753;DHT22;9505;50.882;5.350;2023-03-05T06:43:52;4.60;99.90
18753;DHT22;9505;50.882;5.350;2023-03-05T06:46:21;4.60;99.90
18753;DHT22;9505;50.882;5.350;2023-03-05T06:48:47;4.50;99.90
18753;DHT22;9505;50.882;5.350;2023-03-05T06:51:22;4.40;99.90
18753;DHT22;9505;50.882;5.350;2023-03-05T06:53:49;4.50;99.90
18753;DHT22;9505;50.882;5.350;2023-03-05T06:56:16;4.50;99.90
18753;DHT22;9505;50.882;5.350;2023-03-05T06:58:44;4.50;99.90
18753;DHT22;9505;50.882;5.350;2023-03-05T07:01:10;4.50;99.90
18753;DHT22;9505;50.882;5.350;2023-03-05T07:03:36;4.60;99.90
18753;DHT22;9505;50.882;5.350;2023-03-05T07:06:03;4.60;99.90
18753;DHT22;9505;50.882;5.350;2023-03-05T07:08:29;4.70;99.90
18753;DHT22;9505;50.882;5.350;2023-03-05T07:10:55;4.70;99.90
18753;DHT22;9505;50.882;5.350;2023-03-05T07:13:20;4.80;99.90
18753;DHT22;9505;50.882;5.350;2023-03-05T07:15:46;4.90;99.90
18753;DHT22;9505;50.882;5.350;2023-03-05T07:18:12;4.90;99.90
18753;DHT22;9505;50.882;5.350;2023-03-05T07:20:37;4.90;99.90
18753;DHT22;9505;50.882;5.350;2023-03-05T07:23:03;5.00;99.90
18753;DHT22;9505;50.882;5.350;2023-03-05T07:25:29;5.10;99.90
18753;DHT22;9505;50.882;5.350;2023-03-05T07:27:55;5.00;99.90
18753;DHT22;9505;50.882;5.350;2023-03-05T07:30:21;5.00;99.90
18753;DHT22;9505;50.882;5.350;2023-03-05T07:32:46;5.00;99.90
18753;DHT22;9505;50.882;5.350;2023-03-05T07:35:12;5.10;99.90
18753;DHT22;9505;50.882;5.350;2023-03-05T07:37:38;5.10;99.90
18753;DHT22;9505;50.882;5.350;2023-03-05T07:40:04;5.20;99.90
18753;DHT22;9505;50.882;5.350;2023-03-05T07:42:30;5.30;99.90
18753;DHT22;9505;50.882;5.350;2023-03-05T07:44:56;5.30;99.90
18753;DHT22;9505;50.882;5.350;2023-03-05T07:47:23;5.50;99.90
18753;DHT22;9505;50.882;5.350;2023-03-05T07:49:49;5.50;99.90
18753;DHT22;9505;50.882;5.350;2023-03-05T07:52:15;5.40;99.90
18753;DHT22;9505;50.882;5.350;2023-03-05T07:54:41;5.30;99.90
18753;DHT22;9505;50.882;5.350;2023-03-05T07:57:07;5.20;99.90
18753;DHT22;9505;50.882;5.350;2023-03-05T07:59:33;5.10;99.90
18753;DHT22;9505;50.882;5.350;2023-03-05T08:01:59;5.00;99.90
18753;DHT22;9505;50.882;5.350;2023-03-05T08:04:25;5.10;99.90
18753;DHT22;9505;50.882;5.350;2023-03-05T08:06:51;5.20;99.90
18753;DHT22;9505;50.882;5.350;2023-03-05T08:09:18;5.20;99.90
18753;DHT22;9505;50.882;5.350;2023-03-05T08:11:43;5.20;99.90
18753;DHT22;9505;50.882;5.350;2023-03-05T08:14:09;5.20;99.90
18753;DHT22;9505;50.882;5.350;2023-03-05T08:16:35;5.10;99.90
18753;DHT22;9505;50.882;5.350;2023-03-05T08:19:02;5.10;99.90
18753;DHT22;9505;50.882;5.350;2023-03-05T08:21:33;5.10;99.90
18753;DHT22;9505;50.882;5.350;2023-03-05T08:24:04;5.20;99.90
18753;DHT22;9505;50.882;5.350;2023-03-05T08:26:31;5.30;99.90
18753;DHT22;9505;50.882;5.350;2023-03-05T08:28:57;5.20;99.90
18753;DHT22;9505;50.882;5.350;2023-03-05T08:31:24;5.20;99.90
18753;DHT22;9505;50.882;5.350;2023-03-05T08:33:52;5.30;99.90
18753;DHT22;9505;50.882;5.350;2023-03-05T08:36:19;5.40;99.90
18753;DHT22;9505;50.882;5.350;2023-03-05T08:38:44;5.30;99.90
18753;DHT22;9505;50.882;5.350;2023-03-05T08:41:13;5.30;99.90
18753;DHT22;9505;50.882;5.350;2023-03-05T08:43:39;5.30;99.90
18753;DHT22;9505;50.882;5.350;2023-03-05T08:46:05;5.40;99.90
18753;DHT22;9505;50.882;5.350;2023-03-05T08:48:31;5.30;99.90
18753;DHT22;9505;50.882;5.350;2023-03-05T08:51:03;5.30;99.90
18753;DHT22;9505;50.882;5.350;2023-03-05T08:53:29;5.30;99.90
18753;DHT22;9505;50.882;5.350;2023-03-05T08:55:56;5.40;99.90
18753;DHT22;9505;50.882;5.350;2023-03-05T08:58:22;5.40;99.90
18753;DHT22;9505;50.882;5.350;2023-03-05T09:00:47;5.50;99.90
18753;DHT22;9505;50.882;5.350;2023-03-05T09:03:13;5.80;99.90
18753;DHT22;9505;50.882;5.350;2023-03-05T09:05:39;5.80;99.90
18753;DHT22;9505;50.882;5.350;2023-03-05T09:08:04;5.90;99.90
18753;DHT22;9505;50.882;5.350;2023-03-05T09:10:30;6.00;99.90
18753;DHT22;9505;50.882;5.350;2023-03-05T09:12:55;6.10;99.90
18753;DHT22;9505;50.882;5.350;2023-03-05T09:15:21;6.20;99.90
18753;DHT22;9505;50.882;5.350;2023-03-05T09:17:47;6.40;99.90
18753;DHT22;9505;50.882;5.350;2023-03-05T09:20:12;6.30;99.90
18753;DHT22;9505;50.882;5.350;2023-03-05T09:22:39;6.00;99.90
18753;DHT22;9505;50.882;5.350;2023-03-05T09:25:05;5.90;99.90
18753;DHT22;9505;50.882;5.350;2023-03-05T09:27:35;6.30;99.90
18753;DHT22;9505;50.882;5.350;2023-03-05T09:30:01;6.60;99.90
18753;DHT22;9505;50.882;5.350;2023-03-05T09:32:26;6.60;99.90
18753;DHT22;9505;50.882;5.350;2023-03-05T09:34:52;6.60;99.90
18753;DHT22;9505;50.882;5.350;2023-03-05T09:37:17;6.20;99.90
18753;DHT22;9505;50.882;5.350;2023-03-05T09:39:43;6.30;99.90
18753;DHT22;9505;50.882;5.350;2023-03-05T09:45:25;6.40;99.90
18753;DHT22;9505;50.882;5.350;2023-03-05T09:47:57;6.40;99.90
18753;DHT22;9505;50.882;5.350;2023-03-05T09:50:39;6.30;99.90
18753;DHT22;9505;50.882;5.350;2023-03-05T09:55:54;6.20;99.90
18753;DHT22;9505;50.882;5.350;2023-03-05T09:58:37;6.00;99.90
18753;DHT22;9505;50.882;5.350;2023-03-05T10:01:16;6.20;99.90
18753;DHT22;9505;50.882;5.350;2023-03-05T10:06:37;6.80;99.90
18753;DHT22;9505;50.882;5.350;2023-03-05T10:12:12;6.80;99.90
18753;DHT22;9505;50.882;5.350;2023-03-05T10:14:39;7.00;99.90
18753;DHT22;9505;50.882;5.350;2023-03-05T10:25:51;7.00;99.90
18753;DHT22;9505;50.882;5.350;2023-03-05T10:34:12;6.60;99.90
18753;DHT22;9505;50.882;5.350;2023-03-05T10:45:45;6.40;99.90
18753;DHT22;9505;50.882;5.350;2023-03-05T10:51:12;6.70;99.90
18753;DHT22;9505;50.882;5.350;2023-03-05T10:53:55;6.80;99.90
18753;DHT22;9505;50.882;5.350;2023-03-05T10:56:24;6.90;99.90
18753;DHT22;9505;50.882;5.350;2023-03-05T10:58:50;7.30;99.90
18753;DHT22;9505;50.882;5.350;2023-03-05T11:04:00;7.30;99.90
18753;DHT22;9505;50.882;5.350;2023-03-05T11:06:38;7.40;99.90
18753;DHT22;9505;50.882;5.350;2023-03-05T11:09:20;7.40;99.90
18753;DHT22;9505;50.882;5.350;2023-03-05T11:12:11;7.50;99.90
18753;DHT22;9505;50.882;5.350;2023-03-05T11:14:43;7.60;99.90
18753;DHT22;9505;50.882;5.350;2023-03-05T11:17:32;7.60;99.90
18753;DHT22;9505;50.882;5.350;2023-03-05T11:25:30;8.10;99.90
18753;DHT22;9505;50.882;5.350;2023-03-05T11:27:59;8.40;99.90
18753;DHT22;9505;50.882;5.350;2023-03-05T11:30:34;8.50;99.90
18753;DHT22;9505;50.882;5.350;2023-03-05T11:33:14;8.30;99.90
18753;DHT22;9505;50.882;5.350;2023-03-05T11:35:41;8.60;99.90
18753;DHT22;9505;50.882;5.350;2023-03-05T11:40:45;9.10;99.90
18753;DHT22;9505;50.882;5.350;2023-03-05T11:43:20;9.20;99.90
18753;DHT22;9505;50.882;5.350;2023-03-05T11:45:49;9.50;99.90
18753;DHT22;9505;50.882;5.350;2023-03-05T11:48:24;9.70;99.90
18753;DHT22;9505;50.882;5.350;2023-03-05T11:50:54;9.80;99.90
18753;DHT22;9505;50.882;5.350;2023-03-05T11:53:38;10.00;99.90
18753;DHT22;9505;50.882;5.350;2023-03-05T11:59:04;9.40;99.90
18753;DHT22;9505;50.882;5.350;2023-03-05T12:01:34;9.10;99.90
18753;DHT22;9505;50.882;5.350;2023-03-05T12:04:00;9.00;99.90
18753;DHT22;9505;50.882;5.350;2023-03-05T12:11:44;8.60;99.90
18753;DHT22;9505;50.882;5.350;2023-03-05T12:14:26;8.80;99.90
18753;DHT22;9505;50.882;5.350;2023-03-05T12:16:58;8.60;99.90
18753;DHT22;9505;50.882;5.350;2023-03-05T12:22:22;8.50;99.90
18753;DHT22;9505;50.882;5.350;2023-03-05T12:24:49;8.30;99.90
18753;DHT22;9505;50.882;5.350;2023-03-05T12:27:47;8.20;99.90
18753;DHT22;9505;50.882;5.350;2023-03-05T12:38:55;7.70;99.90
18753;DHT22;9505;50.882;5.350;2023-03-05T12:51:47;7.40;99.90
18753;DHT22;9505;50.882;5.350;2023-03-05T12:54:36;7.20;99.90
18753;DHT22;9505;50.882;5.350;2023-03-05T12:59:46;7.20;99.90
18753;DHT22;9505;50.882;5.350;2023-03-05T13:02:27;7.30;99.90
18753;DHT22;9505;50.882;5.350;2023-03-05T13:05:03;7.40;99.90
18753;DHT22;9505;50.882;5.350;2023-03-05T13:07:29;7.60;99.90
18753;DHT22;9505;50.882;5.350;2023-03-05T13:09:57;7.70;99.90
18753;DHT22;9505;50.882;5.350;2023-03-05T13:12:24;7.60;99.90
18753;DHT22;9505;50.882;5.350;2023-03-05T13:15:00;7.50;99.90
18753;DHT22;9505;50.882;5.350;2023-03-05T13:20:02;7.80;99.90
18753;DHT22;9505;50.882;5.350;2023-03-05T13:22:30;7.90;99.90
18753;DHT22;9505;50.882;5.350;2023-03-05T13:25:22;8.10;99.90
18753;DHT22;9505;50.882;5.350;2023-03-05T13:27:48;8.20;99.90
18753;DHT22;9505;50.882;5.350;2023-03-05T13:30:22;8.40;99.90
18753;DHT22;9505;50.882;5.350;2023-03-05T13:32:50;8.70;99.90
18753;DHT22;9505;50.882;5.350;2023-03-05T13:35:16;8.80;99.90
18753;DHT22;9505;50.882;5.350;2023-03-05T13:37:43;8.70;99.90
18753;DHT22;9505;50.882;5.350;2023-03-05T13:40:19;8.50;99.90
18753;DHT22;9505;50.882;5.350;2023-03-05T13:42:46;8.30;99.90
18753;DHT22;9505;50.882;5.350;2023-03-05T13:45:24;8.30;99.90
18753;DHT22;9505;50.882;5.350;2023-03-05T13:47:56;8.40;99.90
18753;DHT22;9505;50.882;5.350;2023-03-05T13:52:49;8.10;99.90
18753;DHT22;9505;50.882;5.350;2023-03-05T13:55:16;8.20;99.90
18753;DHT22;9505;50.882;5.350;2023-03-05T13:57:47;8.40;99.90
18753;DHT22;9505;50.882;5.350;2023-03-05T14:02:58;8.20;99.90
18753;DHT22;9505;50.882;5.350;2023-03-05T14:05:24;8.10;99.90
18753;DHT22;9505;50.882;5.350;2023-03-05T14:07:50;8.00;99.90
18753;DHT22;9505;50.882;5.350;2023-03-05T14:10:35;7.70;99.90
18753;DHT22;9505;50.882;5.350;2023-03-05T14:13:27;7.50;99.90
18753;DHT22;9505;50.882;5.350;2023-03-05T14:16:07;7.30;99.90
18753;DHT22;9505;50.882;5.350;2023-03-05T14:18:33;7.00;99.90
18753;DHT22;9505;50.882;5.350;2023-03-05T14:21:08;6.70;99.90
18753;DHT22;9505;50.882;5.350;2023-03-05T14:23:36;6.70;99.90
18753;DHT22;9505;50.882;5.350;2023-03-05T14:28:36;6.80;99.90
18753;DHT22;9505;50.882;5.350;2023-03-05T14:31:02;6.70;99.90
18753;DHT22;9505;50.882;5.350;2023-03-05T14:33:30;6.60;99.90
18753;DHT22;9505;50.882;5.350;2023-03-05T14:35:57;6.30;99.90
18753;DHT22;9505;50.882;5.350;2023-03-05T14:38:29;6.30;99.90
18753;DHT22;9505;50.882;5.350;2023-03-05T14:40:56;6.10;99.90
18753;DHT22;9505;50.882;5.350;2023-03-05T14:43:21;6.00;99.90
18753;DHT22;9505;50.882;5.350;2023-03-05T14:45:47;6.00;99.90
18753;DHT22;9505;50.882;5.350;2023-03-05T14:48:15;6.00;99.90
18753;DHT22;9505;50.882;5.350;2023-03-05T14:50:44;5.90;99.90
18753;DHT22;9505;50.882;5.350;2023-03-05T14:53:23;5.70;99.90
18753;DHT22;9505;50.882;5.350;2023-03-05T14:55:51;5.50;99.90
18753;DHT22;9505;50.882;5.350;2023-03-05T14:58:22;5.30;99.90
18753;DHT22;9505;50.882;5.350;2023-03-05T15:00:51;5.10;99.90
18753;DHT22;9505;50.882;5.350;2023-03-05T15:03:18;5.00;99.90
18753;DHT22;9505;50.882;5.350;2023-03-05T15:05:46;4.80;99.90
18753;DHT22;9505;50.882;5.350;2023-03-05T15:08:16;4.70;99.90
18753;DHT22;9505;50.882;5.350;2023-03-05T15:10:42;4.90;99.90
18753;DHT22;9505;50.882;5.350;2023-03-05T15:13:08;5.10;99.90
18753;DHT22;9505;50.882;5.350;2023-03-05T15:15:33;5.20;99.90
18753;DHT22;9505;50.882;5.350;2023-03-05T15:17:59;5.30;99.90
18753;DHT22;9505;50.882;5.350;2023-03-05T15:20:28;5.30;99.90
18753;DHT22;9505;50.882;5.350;2023-03-05T15:22:54;5.30;99.90
18753;DHT22;9505;50.882;5.350;2023-03-05T15:25:21;5.30;99.90
18753;DHT22;9505;50.882;5.350;2023-03-05T15:27:48;5.30;99.90
18753;DHT22;9505;50.882;5.350;2023-03-05T15:30:27;5.30;99.90
18753;DHT22;9505;50.882;5.350;2023-03-05T15:32:55;5.30;99.90
18753;DHT22;9505;50.882;5.350;2023-03-05T15:35:22;5.20;99.90
18753;DHT22;9505;50.882;5.350;2023-03-05T15:37:48;5.00;99.90
18753;DHT22;9505;50.882;5.350;2023-03-05T15:40:14;4.80;99.90
18753;DHT22;9505;50.882;5.350;2023-03-05T15:42:40;4.70;99.90
18753;DHT22;9505;50.882;5.350;2023-03-05T15:45:07;4.80;99.90
18753;DHT22;9505;50.882;5.350;2023-03-05T15:47:33;4.80;99.90
18753;DHT22;9505;50.882;5.350;2023-03-05T15:49:58;4.90;99.90
18753;DHT22;9505;50.882;5.350;2023-03-05T15:52:24;4.80;99.90
18753;DHT22;9505;50.882;5.350;2023-03-05T15:54:49;4.90;99.90
18753;DHT22;9505;50.882;5.350;2023-03-05T15:57:15;4.90;99.90
18753;DHT22;9505;50.882;5.350;2023-03-05T15:59:41;4.80;99.90
18753;DHT22;9505;50.882;5.350;2023-03-05T16:02:07;4.80;99.90
18753;DHT22;9505;50.882;5.350;2023-03-05T16:04:32;4.70;99.90
18753;DHT22;9505;50.882;5.350;2023-03-05T16:06:59;4.70;99.90
18753;DHT22;9505;50.882;5.350;2023-03-05T16:09:31;4.80;99.90
18753;DHT22;9505;50.882;5.350;2023-03-05T16:11:59;4.80;99.90
18753;DHT22;9505;50.882;5.350;2023-03-05T16:14:26;4.90;99.90
18753;DHT22;9505;50.882;5.350;2023-03-05T16:16:54;4.90;99.90
18753;DHT22;9505;50.882;5.350;2023-03-05T16:19:23;4.90;99.90
18753;DHT22;9505;50.882;5.350;2023-03-05T16:21:49;4.90;99.90
18753;DHT22;9505;50.882;5.350;2023-03-05T16:24:15;4.90;99.90
18753;DHT22;9505;50.882;5.350;2023-03-05T16:26:41;4.90;99.90
18753;DHT22;9505;50.882;5.350;2023-03-05T16:29:07;4.90;99.90
18753;DHT22;9505;50.882;5.350;2023-03-05T16:31:34;4.80;99.90
18753;DHT22;9505;50.882;5.350;2023-03-05T16:34:02;4.80;99.90
18753;DHT22;9505;50.882;5.350;2023-03-05T16:36:29;4.70;99.90
18753;DHT22;9505;50.882;5.350;2023-03-05T16:38:59;4.70;99.90
18753;DHT22;9505;50.882;5.350;2023-03-05T16:41:25;4.70;99.90
18753;DHT22;9505;50.882;5.350;2023-03-05T16:43:53;4.80;99.90
18753;DHT22;9505;50.882;5.350;2023-03-05T16:46:21;4.90;99.90
18753;DHT22;9505;50.882;5.350;2023-03-05T16:48:46;4.90;99.90
18753;DHT22;9505;50.882;5.350;2023-03-05T16:51:12;4.90;99.90
18753;DHT22;9505;50.882;5.350;2023-03-05T16:53:39;4.90;99.90
18753;DHT22;9505;50.882;5.350;2023-03-05T16:56:06;4.90;99.90
18753;DHT22;9505;50.882;5.350;2023-03-05T16:58:33;4.90;99.90
18753;DHT22;9505;50.882;5.350;2023-03-05T17:00:59;4.90;99.90
18753;DHT22;9505;50.882;5.350;2023-03-05T17:03:25;4.90;99.90
18753;DHT22;9505;50.882;5.350;2023-03-05T17:05:52;4.90;99.90
18753;DHT22;9505;50.882;5.350;2023-03-05T17:08:17;4.90;99.90
18753;DHT22;9505;50.882;5.350;2023-03-05T17:10:43;4.90;99.90
18753;DHT22;9505;50.882;5.350;2023-03-05T17:13:09;4.90;99.90
18753;DHT22;9505;50.882;5.350;2023-03-05T17:15:34;4.80;99.90
18753;DHT22;9505;50.882;5.350;2023-03-05T17:18:00;4.90;99.90
18753;DHT22;9505;50.882;5.350;2023-03-05T17:20:26;4.80;99.90
18753;DHT22;9505;50.882;5.350;2023-03-05T17:22:52;4.90;99.90
18753;DHT22;9505;50.882;5.350;2023-03-05T17:25:18;4.80;99.90
18753;DHT22;9505;50.882;5.350;2023-03-05T17:27:45;4.80;99.90
18753;DHT22;9505;50.882;5.350;2023-03-05T17:30:12;4.80;99.90
18753;DHT22;9505;50.882;5.350;2023-03-05T17:32:37;4.80;99.90
18753;DHT22;9505;50.882;5.350;2023-03-05T17:35:06;4.90;99.90
18753;DHT22;9505;50.882;5.350;2023-03-05T17:37:32;4.90;99.90
18753;DHT22;9505;50.882;5.350;2023-03-05T17:39:57;4.90;99.90